createdAt,value
2018-05-03T00:00:08.538Z,21.35
2018-05-03T00:00:40.182Z,21.35
2018-05-03T00:01:11.793Z,21.34
2018-05-03T00:01:43.383Z,21.33
2018-05-03T00:02:15.637Z,21.35
2018-05-03T00:02:47.209Z,21.34
2018-05-03T00:03:18.793Z,21.35
2018-05-03T00:03:50.393Z,21.38
2018-05-03T00:04:22.006Z,21.40
2018-05-03T00:04:53.598Z,21.41
2018-05-03T00:05:25.242Z,21.44
2018-05-03T00:05:56.821Z,21.42
2018-05-03T00:06:28.405Z,21.45
2018-05-03T00:07:00.010Z,21.46
2018-05-03T00:07:31.599Z,21.46
2018-05-03T00:08:03.187Z,21.48
2018-05-03T00:08:34.793Z,21.48
2018-05-03T00:09:06.377Z,21.49
2018-05-03T00:09:37.998Z,21.49
2018-05-03T00:10:09.616Z,21.50
2018-05-03T00:10:41.225Z,21.49
2018-05-03T00:11:12.820Z,21.48
2018-05-03T00:11:44.416Z,21.48
2018-05-03T00:12:16.026Z,21.48
2018-05-03T00:12:47.618Z,21.48
2018-05-03T00:13:19.202Z,21.51
2018-05-03T00:13:50.805Z,21.53
2018-05-03T00:14:22.381Z,21.50
2018-05-03T00:14:54.020Z,21.50
2018-05-03T00:15:25.597Z,21.50
2018-05-03T00:15:58.233Z,21.49
2018-05-03T00:16:29.837Z,21.51
2018-05-03T00:17:01.445Z,21.49
2018-05-03T00:17:33.060Z,21.50
2018-05-03T00:18:04.634Z,21.50
2018-05-03T00:18:36.234Z,21.48
2018-05-03T00:19:07.837Z,21.48
2018-05-03T00:19:39.459Z,21.48
2018-05-03T00:20:11.105Z,21.48
2018-05-03T00:20:42.699Z,21.47
2018-05-03T00:21:14.276Z,21.44
2018-05-03T00:21:45.844Z,21.45
2018-05-03T00:22:17.438Z,21.45
2018-05-03T00:22:49.077Z,21.45
2018-05-03T00:23:20.656Z,21.45
2018-05-03T00:23:52.234Z,21.45
2018-05-03T00:24:23.828Z,21.43
2018-05-03T00:24:55.414Z,21.42
2018-05-03T00:25:27.101Z,21.42
2018-05-03T00:25:58.674Z,21.42
2018-05-03T00:26:30.283Z,21.42
2018-05-03T00:27:01.856Z,21.41
2018-05-03T00:27:33.452Z,21.40
2018-05-03T00:28:05.071Z,21.40
2018-05-03T00:28:36.668Z,21.39
2018-05-03T00:29:08.252Z,21.39
2018-05-03T00:29:39.858Z,21.39
2018-05-03T00:30:11.504Z,21.40
2018-05-03T00:30:43.119Z,21.38
2018-05-03T00:31:14.697Z,21.38
2018-05-03T00:31:46.306Z,21.35
2018-05-03T00:32:17.890Z,21.36
2018-05-03T00:32:49.506Z,21.36
2018-05-03T00:33:21.090Z,21.36
2018-05-03T00:33:52.664Z,21.35
2018-05-03T00:34:24.245Z,21.35
2018-05-03T00:34:55.844Z,21.34
2018-05-03T00:35:27.466Z,21.35
2018-05-03T00:35:59.142Z,21.37
2018-05-03T00:36:30.751Z,21.36
2018-05-03T00:37:02.346Z,21.35
2018-05-03T00:37:33.913Z,21.39
2018-05-03T00:38:05.514Z,21.38
2018-05-03T00:38:37.094Z,21.38
2018-05-03T00:39:08.678Z,21.37
2018-05-03T00:39:40.312Z,21.36
2018-05-03T00:40:11.908Z,21.37
2018-05-03T00:40:43.480Z,21.36
2018-05-03T00:41:15.054Z,21.36
2018-05-03T00:41:46.657Z,21.34
2018-05-03T00:42:18.261Z,21.34
2018-05-03T00:42:49.841Z,21.33
2018-05-03T00:43:21.446Z,21.33
2018-05-03T00:43:53.030Z,21.32
2018-05-03T00:44:24.659Z,21.32
2018-05-03T00:44:56.237Z,21.33
2018-05-03T00:45:27.828Z,21.33
2018-05-03T00:45:59.434Z,21.33
2018-05-03T00:46:31.038Z,21.33
2018-05-03T00:47:02.678Z,21.33
2018-05-03T00:47:34.266Z,21.31
2018-05-03T00:48:05.860Z,21.34
2018-05-03T00:48:37.450Z,21.31
2018-05-03T00:49:09.053Z,21.32
2018-05-03T00:49:40.632Z,21.32
2018-05-03T00:50:12.204Z,21.31
2018-05-03T00:50:43.785Z,21.30
2018-05-03T00:51:15.366Z,21.30
2018-05-03T00:51:47.009Z,21.30
2018-05-03T00:52:18.597Z,21.32
2018-05-03T00:52:50.208Z,21.33
2018-05-03T00:53:21.776Z,21.32
2018-05-03T00:53:53.352Z,21.33
2018-05-03T00:54:24.925Z,21.31
2018-05-03T00:54:56.561Z,21.35
2018-05-03T00:55:28.139Z,21.35
2018-05-03T00:55:59.732Z,21.36
2018-05-03T00:56:31.309Z,21.35
2018-05-03T00:57:02.918Z,21.35
2018-05-03T00:57:34.530Z,21.35
2018-05-03T00:58:06.155Z,21.33
2018-05-03T00:58:37.744Z,21.32
2018-05-03T00:59:09.317Z,21.33
2018-05-03T00:59:40.888Z,21.31
2018-05-03T01:00:12.470Z,21.31
2018-05-03T01:00:44.054Z,21.31
2018-05-03T01:01:15.639Z,21.28
2018-05-03T01:01:47.242Z,21.30
2018-05-03T01:02:18.851Z,21.32
2018-05-03T01:02:50.432Z,21.32
2018-05-03T01:03:22.010Z,21.34
2018-05-03T01:03:53.609Z,21.36
2018-05-03T01:04:25.190Z,21.34
2018-05-03T01:04:56.810Z,21.34
2018-05-03T01:05:28.417Z,21.34
2018-05-03T01:06:00.030Z,21.33
2018-05-03T01:06:31.604Z,21.33
2018-05-03T01:07:03.206Z,21.31
2018-05-03T01:07:34.794Z,21.34
2018-05-03T01:08:06.361Z,21.33
2018-05-03T01:08:37.962Z,21.33
2018-05-03T01:09:09.613Z,21.33
2018-05-03T01:09:41.254Z,21.34
2018-05-03T01:10:12.784Z,21.34
2018-05-03T01:10:44.390Z,21.35
2018-05-03T01:11:15.996Z,21.33
2018-05-03T01:11:47.610Z,21.35
2018-05-03T01:12:19.234Z,21.36
2018-05-03T01:12:50.817Z,21.36
2018-05-03T01:13:22.408Z,21.36
2018-05-03T01:13:54.014Z,21.34
2018-05-03T01:14:25.648Z,21.33
2018-05-03T01:14:57.220Z,21.34
2018-05-03T01:15:28.802Z,21.33
2018-05-03T01:16:00.368Z,21.32
2018-05-03T01:16:31.954Z,21.32
2018-05-03T01:17:03.537Z,21.33
2018-05-03T01:17:35.121Z,21.32
2018-05-03T01:18:06.702Z,21.33
2018-05-03T01:18:38.292Z,21.32
2018-05-03T01:19:09.903Z,21.32
2018-05-03T01:19:41.533Z,21.35
2018-05-03T01:20:13.134Z,21.34
2018-05-03T01:20:44.723Z,21.35
2018-05-03T01:21:16.296Z,21.33
2018-05-03T01:21:47.906Z,21.32
2018-05-03T01:22:19.534Z,21.32
2018-05-03T01:22:51.138Z,21.35
2018-05-03T01:23:22.742Z,21.35
2018-05-03T01:23:54.329Z,21.34
2018-05-03T01:24:25.934Z,21.34
2018-05-03T01:24:57.545Z,21.25
2018-05-03T01:25:29.149Z,21.34
2018-05-03T01:26:00.788Z,21.33
2018-05-03T01:26:32.379Z,21.32
2018-05-03T01:27:03.952Z,21.32
2018-05-03T01:27:35.543Z,21.31
2018-05-03T01:28:07.161Z,21.33
2018-05-03T01:28:38.760Z,21.32
2018-05-03T01:29:10.342Z,21.34
2018-05-03T01:29:41.946Z,21.34
2018-05-03T01:30:13.557Z,21.35
2018-05-03T01:30:45.162Z,21.34
2018-05-03T01:31:16.790Z,21.34
2018-05-03T01:31:48.380Z,21.34
2018-05-03T01:32:19.994Z,21.35
2018-05-03T01:32:51.568Z,21.36
2018-05-03T01:33:23.151Z,21.35
2018-05-03T01:33:54.720Z,21.35
2018-05-03T01:34:26.326Z,21.35
2018-05-03T01:34:57.907Z,21.35
2018-05-03T01:35:29.510Z,21.35
2018-05-03T01:36:01.183Z,21.34
2018-05-03T01:36:32.779Z,21.34
2018-05-03T01:37:04.356Z,21.34
2018-05-03T01:37:35.962Z,21.34
2018-05-03T01:38:07.574Z,21.34
2018-05-03T01:38:39.158Z,21.33
2018-05-03T01:39:10.728Z,21.33
2018-05-03T01:39:42.329Z,21.33
2018-05-03T01:40:13.934Z,21.34
2018-05-03T01:40:45.538Z,21.34
2018-05-03T01:41:17.166Z,21.34
2018-05-03T01:41:48.770Z,21.35
2018-05-03T01:42:20.337Z,21.35
2018-05-03T01:42:51.904Z,21.37
2018-05-03T01:43:23.506Z,21.42
2018-05-03T01:43:55.080Z,21.42
2018-05-03T01:44:26.668Z,21.42
2018-05-03T01:44:58.244Z,21.43
2018-05-03T01:45:29.840Z,21.43
2018-05-03T01:46:01.425Z,21.44
2018-05-03T01:46:33.069Z,21.43
2018-05-03T01:47:04.650Z,21.46
2018-05-03T01:47:36.230Z,21.47
2018-05-03T01:48:07.813Z,21.45
2018-05-03T01:48:39.398Z,21.44
2018-05-03T01:49:11.006Z,21.42
2018-05-03T01:49:42.590Z,21.41
2018-05-03T01:50:14.193Z,21.42
2018-05-03T01:50:45.792Z,21.40
2018-05-03T01:51:17.381Z,21.39
2018-05-03T01:51:49.025Z,21.39
2018-05-03T01:52:20.596Z,21.38
2018-05-03T01:52:52.234Z,21.38
2018-05-03T01:53:23.825Z,21.38
2018-05-03T01:53:55.427Z,21.36
2018-05-03T01:54:27.038Z,21.36
2018-05-03T01:54:58.641Z,21.35
2018-05-03T01:55:30.220Z,21.36
2018-05-03T01:56:01.796Z,21.37
2018-05-03T01:56:33.378Z,21.38
2018-05-03T01:57:04.966Z,21.38
2018-05-03T01:57:36.550Z,21.36
2018-05-03T01:58:08.173Z,21.40
2018-05-03T01:58:39.757Z,21.39
2018-05-03T01:59:11.366Z,21.41
2018-05-03T01:59:42.954Z,21.41
2018-05-03T02:00:14.534Z,21.41
2018-05-03T02:00:46.125Z,21.41
2018-05-03T02:01:17.738Z,21.40
2018-05-03T02:01:49.351Z,21.38
2018-05-03T02:02:20.929Z,21.39
2018-05-03T02:02:52.553Z,21.40
2018-05-03T02:03:24.119Z,21.41
2018-05-03T02:03:55.765Z,21.42
2018-05-03T02:04:27.335Z,21.42
2018-05-03T02:04:58.918Z,21.42
2018-05-03T02:05:30.484Z,21.41
2018-05-03T02:06:02.072Z,21.41
2018-05-03T02:06:33.742Z,21.41
2018-05-03T02:07:05.324Z,21.42
2018-05-03T02:07:36.936Z,21.43
2018-05-03T02:08:08.514Z,21.44
2018-05-03T02:08:40.117Z,21.45
2018-05-03T02:09:11.782Z,21.45
2018-05-03T02:09:43.357Z,21.45
2018-05-03T02:10:14.966Z,21.44
2018-05-03T02:10:46.540Z,21.45
2018-05-03T02:11:18.145Z,21.46
2018-05-03T02:11:49.741Z,21.46
2018-05-03T02:12:21.337Z,21.48
2018-05-03T02:12:52.945Z,21.49
2018-05-03T02:13:24.554Z,21.48
2018-05-03T02:13:56.133Z,21.49
2018-05-03T02:14:27.765Z,21.49
2018-05-03T02:14:59.410Z,21.50
2018-05-03T02:15:31.014Z,21.51
2018-05-03T02:16:02.598Z,21.53
2018-05-03T02:16:34.232Z,21.52
2018-05-03T02:17:05.818Z,21.54
2018-05-03T02:17:37.402Z,21.54
2018-05-03T02:18:08.986Z,21.54
2018-05-03T02:18:40.566Z,21.54
2018-05-03T02:19:12.143Z,21.54
2018-05-03T02:19:43.785Z,21.54
2018-05-03T02:20:15.380Z,21.53
2018-05-03T02:20:46.970Z,21.53
2018-05-03T02:21:18.554Z,21.54
2018-05-03T02:21:50.162Z,21.54
2018-05-03T02:22:21.766Z,21.54
2018-05-03T02:22:53.350Z,21.53
2018-05-03T02:23:24.994Z,21.52
2018-05-03T02:23:56.592Z,21.53
2018-05-03T02:24:28.197Z,21.53
2018-05-03T02:24:59.789Z,21.51
2018-05-03T02:25:31.366Z,21.52
2018-05-03T02:26:02.974Z,21.51
2018-05-03T02:26:34.581Z,21.51
2018-05-03T02:27:06.185Z,21.51
2018-05-03T02:27:37.794Z,21.52
2018-05-03T02:28:09.378Z,21.52
2018-05-03T02:28:41.025Z,21.54
2018-05-03T02:29:12.614Z,21.55
2018-05-03T02:29:44.218Z,21.54
2018-05-03T02:30:15.825Z,21.51
2018-05-03T02:30:47.462Z,21.53
2018-05-03T02:31:19.110Z,21.50
2018-05-03T02:31:50.709Z,21.53
2018-05-03T02:32:22.298Z,21.54
2018-05-03T02:32:53.934Z,21.54
2018-05-03T02:33:25.509Z,21.54
2018-05-03T02:33:57.098Z,21.51
2018-05-03T02:34:28.706Z,21.54
2018-05-03T02:35:00.325Z,21.53
2018-05-03T02:35:31.896Z,21.53
2018-05-03T02:36:03.502Z,21.53
2018-05-03T02:36:35.082Z,21.52
2018-05-03T02:37:06.720Z,21.55
2018-05-03T02:37:38.316Z,21.55
2018-05-03T02:38:09.927Z,21.54
2018-05-03T02:38:41.528Z,21.55
2018-05-03T02:39:13.129Z,21.56
2018-05-03T02:39:44.712Z,21.56
2018-05-03T02:40:16.284Z,21.60
2018-05-03T02:40:47.887Z,21.65
2018-05-03T02:41:19.489Z,21.65
2018-05-03T02:41:51.078Z,21.66
2018-05-03T02:42:22.669Z,21.70
2018-05-03T02:42:54.318Z,21.70
2018-05-03T02:43:25.931Z,21.70
2018-05-03T02:43:57.528Z,21.71
2018-05-03T02:44:29.139Z,21.71
2018-05-03T02:45:00.753Z,21.71
2018-05-03T02:45:32.348Z,21.72
2018-05-03T02:46:03.930Z,21.71
2018-05-03T02:46:35.530Z,21.70
2018-05-03T02:47:07.138Z,21.71
2018-05-03T02:47:38.792Z,21.71
2018-05-03T02:48:10.375Z,21.71
2018-05-03T02:48:42.998Z,21.71
2018-05-03T02:49:14.606Z,21.70
2018-05-03T02:49:46.210Z,21.71
2018-05-03T02:50:17.821Z,21.70
2018-05-03T02:50:49.402Z,21.73
2018-05-03T02:51:20.997Z,21.73
2018-05-03T02:51:52.578Z,21.73
2018-05-03T02:52:24.162Z,21.71
2018-05-03T02:52:55.809Z,21.69
2018-05-03T02:53:27.413Z,21.73
2018-05-03T02:53:59.018Z,21.73
2018-05-03T02:54:30.604Z,21.73
2018-05-03T02:55:02.187Z,21.74
2018-05-03T02:55:33.789Z,21.73
2018-05-03T02:56:05.372Z,21.73
2018-05-03T02:56:36.977Z,21.73
2018-05-03T02:57:08.548Z,21.72
2018-05-03T02:57:40.135Z,21.71
2018-05-03T02:58:17.822Z,21.70
2018-05-03T02:58:49.445Z,21.68
2018-05-03T02:59:22.038Z,21.68
2018-05-03T02:59:53.613Z,21.68
2018-05-03T03:00:31.017Z,21.67
2018-05-03T03:01:08.221Z,21.66
2018-05-03T03:01:45.424Z,21.65
2018-05-03T03:02:22.643Z,21.66
2018-05-03T03:03:47.017Z,21.63
2018-05-03T03:04:24.477Z,21.62
2018-05-03T03:05:01.852Z,21.62
2018-05-03T03:05:39.127Z,21.63
2018-05-03T03:06:10.851Z,21.61
2018-05-03T03:06:48.455Z,21.63
2018-05-03T03:07:25.695Z,21.64
2018-05-03T03:08:03.172Z,21.62
2018-05-03T03:08:40.399Z,21.63
2018-05-03T03:09:17.941Z,21.63
2018-05-03T03:09:55.219Z,21.61
2018-05-03T03:10:32.711Z,21.63
2018-05-03T03:11:10.011Z,21.62
2018-05-03T03:11:47.489Z,21.62
2018-05-03T03:12:24.839Z,21.60
2018-05-03T03:13:02.181Z,21.61
2018-05-03T03:13:39.603Z,21.61
2018-05-03T03:14:17.023Z,21.60
2018-05-03T03:14:54.447Z,21.64
2018-05-03T03:15:31.718Z,21.64
2018-05-03T03:16:09.171Z,21.64
2018-05-03T03:16:46.495Z,21.65
2018-05-03T03:17:23.845Z,21.68
2018-05-03T03:18:01.342Z,21.70
2018-05-03T03:18:38.639Z,21.69
2018-05-03T03:19:16.095Z,21.67
2018-05-03T03:19:53.407Z,21.67
2018-05-03T03:20:30.831Z,21.66
2018-05-03T03:21:08.179Z,21.66
2018-05-03T03:21:45.531Z,21.65
2018-05-03T03:22:22.979Z,21.66
2018-05-03T03:23:00.251Z,21.65
2018-05-03T03:23:37.678Z,21.65
2018-05-03T03:24:15.067Z,21.66
2018-05-03T03:24:46.790Z,21.67
2018-05-03T03:25:18.520Z,21.70
2018-05-03T03:25:55.943Z,21.72
2018-05-03T03:26:27.695Z,21.73
2018-05-03T03:27:05.162Z,21.74
2018-05-03T03:27:42.538Z,21.74
2018-05-03T03:28:20.031Z,21.75
2018-05-03T03:28:57.465Z,21.75
2018-05-03T03:29:34.986Z,21.76
2018-05-03T03:30:06.688Z,21.77
2018-05-03T03:30:44.203Z,21.77
2018-05-03T03:31:21.830Z,21.80
2018-05-03T03:31:59.223Z,21.82
2018-05-03T03:32:30.975Z,21.80
2018-05-03T03:33:02.619Z,21.80
2018-05-03T03:33:34.264Z,21.80
2018-05-03T03:34:11.618Z,21.78
2018-05-03T03:34:43.394Z,21.79
2018-05-03T03:35:15.120Z,21.79
2018-05-03T03:35:46.840Z,21.80
2018-05-03T03:36:18.563Z,21.78
2018-05-03T03:36:50.206Z,21.77
2018-05-03T03:37:21.852Z,21.77
2018-05-03T03:37:53.495Z,21.75
2018-05-03T03:38:30.950Z,21.76
2018-05-03T03:39:02.591Z,21.75
2018-05-03T03:39:34.197Z,21.78
2018-05-03T03:40:11.744Z,21.76
2018-05-03T03:40:43.349Z,21.76
2018-05-03T03:41:14.952Z,21.76
2018-05-03T03:41:46.558Z,21.75
2018-05-03T03:42:18.206Z,21.73
2018-05-03T03:42:49.809Z,21.74
2018-05-03T03:43:21.456Z,21.73
2018-05-03T03:43:53.060Z,21.73
2018-05-03T03:44:24.665Z,21.72
2018-05-03T03:44:56.268Z,21.72
2018-05-03T03:45:27.869Z,21.72
2018-05-03T03:45:59.475Z,21.72
2018-05-03T03:46:31.077Z,21.72
2018-05-03T03:47:02.677Z,21.73
2018-05-03T03:47:34.281Z,21.74
2018-05-03T03:48:05.885Z,21.74
2018-05-03T03:48:37.529Z,21.74
2018-05-03T03:49:09.136Z,21.74
2018-05-03T03:49:40.745Z,21.76
2018-05-03T03:50:12.341Z,21.76
2018-05-03T03:50:43.948Z,21.74
2018-05-03T03:51:15.562Z,21.75
2018-05-03T03:51:47.164Z,21.74
2018-05-03T03:52:18.764Z,21.75
2018-05-03T03:52:50.342Z,21.72
2018-05-03T03:53:22.069Z,21.72
2018-05-03T03:53:53.576Z,21.72
2018-05-03T03:54:25.153Z,21.72
2018-05-03T03:54:56.738Z,21.72
2018-05-03T03:55:28.305Z,21.72
2018-05-03T03:55:59.890Z,21.73
2018-05-03T03:56:31.472Z,21.73
2018-05-03T03:57:03.044Z,21.74
2018-05-03T03:57:34.626Z,21.75
2018-05-03T03:58:06.207Z,21.73
2018-05-03T03:58:37.818Z,21.73
2018-05-03T03:59:09.482Z,21.74
2018-05-03T03:59:40.992Z,21.73
2018-05-03T04:00:12.570Z,21.74
2018-05-03T04:00:44.154Z,21.74
2018-05-03T04:01:15.724Z,21.75
2018-05-03T04:01:47.311Z,21.76
2018-05-03T04:02:18.880Z,21.76
2018-05-03T04:02:50.466Z,21.77
2018-05-03T04:03:22.096Z,21.77
2018-05-03T04:03:53.673Z,21.76
2018-05-03T04:04:25.274Z,21.78
2018-05-03T04:04:56.856Z,21.77
2018-05-03T04:05:28.438Z,21.77
2018-05-03T04:06:00.017Z,21.75
2018-05-03T04:06:31.594Z,21.74
2018-05-03T04:07:03.170Z,21.74
2018-05-03T04:07:34.749Z,21.75
2018-05-03T04:08:06.316Z,21.73
2018-05-03T04:08:37.953Z,21.73
2018-05-03T04:09:09.539Z,21.73
2018-05-03T04:09:41.127Z,21.73
2018-05-03T04:10:12.702Z,21.72
2018-05-03T04:10:44.292Z,21.71
2018-05-03T04:11:15.869Z,21.72
2018-05-03T04:11:47.448Z,21.71
2018-05-03T04:12:19.030Z,21.71
2018-05-03T04:12:50.600Z,21.70
2018-05-03T04:13:22.187Z,21.71
2018-05-03T04:13:53.804Z,21.69
2018-05-03T04:14:25.373Z,21.67
2018-05-03T04:14:56.954Z,21.66
2018-05-03T04:15:28.534Z,21.65
2018-05-03T04:16:00.158Z,21.65
2018-05-03T04:16:31.728Z,21.67
2018-05-03T04:17:03.301Z,21.70
2018-05-03T04:17:34.964Z,21.78
2018-05-03T04:18:06.536Z,21.85
2018-05-03T04:18:38.122Z,21.92
2018-05-03T04:19:09.727Z,21.97
2018-05-03T04:19:41.334Z,22.00
2018-05-03T04:20:12.987Z,22.00
2018-05-03T04:20:44.574Z,22.00
2018-05-03T04:21:16.179Z,21.97
2018-05-03T04:21:47.766Z,21.93
2018-05-03T04:22:19.412Z,21.88
2018-05-03T04:22:50.987Z,21.83
2018-05-03T04:23:22.574Z,21.76
2018-05-03T04:23:54.164Z,21.76
2018-05-03T04:24:25.755Z,21.71
2018-05-03T04:24:57.338Z,21.69
2018-05-03T04:25:28.918Z,21.64
2018-05-03T04:26:00.498Z,21.67
2018-05-03T04:26:32.109Z,21.65
2018-05-03T04:27:03.691Z,21.65
2018-05-03T04:27:35.261Z,21.66
2018-05-03T04:28:06.862Z,21.65
2018-05-03T04:28:38.514Z,21.65
2018-05-03T04:29:10.131Z,21.66
2018-05-03T04:29:41.718Z,21.65
2018-05-03T04:30:13.326Z,21.66
2018-05-03T04:30:44.924Z,21.66
2018-05-03T04:31:16.536Z,21.65
2018-05-03T04:31:48.142Z,21.65
2018-05-03T04:32:19.753Z,21.65
2018-05-03T04:32:51.328Z,21.64
2018-05-03T04:33:22.934Z,21.66
2018-05-03T04:33:54.553Z,21.67
2018-05-03T04:34:26.155Z,21.67
2018-05-03T04:34:57.733Z,21.67
2018-05-03T04:35:29.324Z,21.69
2018-05-03T04:36:00.930Z,21.69
2018-05-03T04:36:32.537Z,21.70
2018-05-03T04:37:04.131Z,21.70
2018-05-03T04:37:35.710Z,21.71
2018-05-03T04:38:07.314Z,21.71
2018-05-03T04:38:38.961Z,21.74
2018-05-03T04:39:10.566Z,21.73
2018-05-03T04:39:42.148Z,21.77
2018-05-03T04:40:13.754Z,21.77
2018-05-03T04:40:45.329Z,21.77
2018-05-03T04:41:16.938Z,21.80
2018-05-03T04:41:48.520Z,21.84
2018-05-03T04:42:20.112Z,21.87
2018-05-03T04:42:51.698Z,21.88
2018-05-03T04:43:23.287Z,21.88
2018-05-03T04:43:54.942Z,21.90
2018-05-03T04:44:26.516Z,21.90
2018-05-03T04:44:58.117Z,21.91
2018-05-03T04:45:29.725Z,21.92
2018-05-03T04:46:01.334Z,21.92
2018-05-03T04:46:32.932Z,21.90
2018-05-03T04:47:04.514Z,21.92
2018-05-03T04:47:36.102Z,21.91
2018-05-03T04:48:07.690Z,21.93
2018-05-03T04:48:39.284Z,21.94
2018-05-03T04:49:10.890Z,21.94
2018-05-03T04:49:46.092Z,21.94
2018-05-03T04:50:17.745Z,21.93
2018-05-03T04:50:49.455Z,21.91
2018-05-03T04:51:21.056Z,21.92
2018-05-03T04:51:52.637Z,21.90
2018-05-03T04:52:24.230Z,21.91
2018-05-03T04:52:55.804Z,21.92
2018-05-03T04:53:27.379Z,21.93
2018-05-03T04:53:59.006Z,21.94
2018-05-03T04:54:30.629Z,21.94
2018-05-03T04:55:02.207Z,21.95
2018-05-03T04:55:33.790Z,21.93
2018-05-03T04:56:05.369Z,21.93
2018-05-03T04:56:36.955Z,21.94
2018-05-03T04:57:08.538Z,21.94
2018-05-03T04:57:40.112Z,21.96
2018-05-03T04:58:11.680Z,21.98
2018-05-03T04:58:43.252Z,21.96
2018-05-03T04:59:14.867Z,21.95
2018-05-03T04:59:46.449Z,21.95
2018-05-03T05:00:18.074Z,21.95
2018-05-03T05:00:49.659Z,21.96
2018-05-03T05:01:21.242Z,21.95
2018-05-03T05:01:52.812Z,21.95
2018-05-03T05:02:24.389Z,21.94
2018-05-03T05:02:55.973Z,21.96
2018-05-03T05:03:27.554Z,21.95
2018-05-03T05:03:59.124Z,21.95
2018-05-03T05:04:30.702Z,21.94
2018-05-03T05:05:02.330Z,21.95
2018-05-03T05:05:33.909Z,21.94
2018-05-03T05:06:05.497Z,21.95
2018-05-03T05:06:37.086Z,21.93
2018-05-03T05:07:08.666Z,21.93
2018-05-03T05:07:40.254Z,21.93
2018-05-03T05:08:11.838Z,21.93
2018-05-03T05:08:43.419Z,21.93
2018-05-03T05:09:15.002Z,21.91
2018-05-03T05:09:46.582Z,21.92
2018-05-03T05:10:18.207Z,21.91
2018-05-03T05:10:49.837Z,21.89
2018-05-03T05:11:21.723Z,21.89
2018-05-03T05:11:53.302Z,21.90
2018-05-03T05:12:24.877Z,21.89
2018-05-03T05:12:56.462Z,21.88
2018-05-03T05:13:28.032Z,21.89
2018-05-03T05:13:59.610Z,21.91
2018-05-03T05:14:31.189Z,21.90
2018-05-03T05:15:02.774Z,21.90
2018-05-03T05:15:34.354Z,21.92
2018-05-03T05:16:05.924Z,21.89
2018-05-03T05:16:37.506Z,21.88
2018-05-03T05:17:09.086Z,21.88
2018-05-03T05:17:40.670Z,21.89
2018-05-03T05:18:12.249Z,21.90
2018-05-03T05:20:15.162Z,21.87
2018-05-03T05:20:52.558Z,21.87
2018-05-03T05:21:24.219Z,21.84
2018-05-03T05:21:55.947Z,21.82
2018-05-03T05:22:27.671Z,21.80
2018-05-03T05:22:59.391Z,21.82
2018-05-03T05:23:31.083Z,21.82
2018-05-03T05:24:02.735Z,21.81
2018-05-03T05:24:34.458Z,21.83
2018-05-03T05:25:06.183Z,21.83
2018-05-03T05:25:37.902Z,21.81
2018-05-03T05:26:09.627Z,21.80
2018-05-03T05:26:41.353Z,21.80
2018-05-03T05:27:13.075Z,21.79
2018-05-03T05:27:44.799Z,21.81
2018-05-03T05:28:16.523Z,21.80
2018-05-03T05:28:48.247Z,21.80
2018-05-03T05:29:19.971Z,21.81
2018-05-03T05:29:51.696Z,21.80
2018-05-03T05:30:23.414Z,21.79
2018-05-03T05:30:55.060Z,21.79
2018-05-03T05:31:26.763Z,21.80
2018-05-03T05:31:58.482Z,21.81
2018-05-03T05:32:30.203Z,21.80
2018-05-03T05:33:01.928Z,21.79
2018-05-03T05:33:33.655Z,21.79
2018-05-03T05:34:05.375Z,21.80
2018-05-03T05:34:37.102Z,21.79
2018-05-03T05:35:08.822Z,21.79
2018-05-03T05:35:40.542Z,21.78
2018-05-03T05:36:12.267Z,21.79
2018-05-03T05:36:44.039Z,21.80
2018-05-03T05:37:15.714Z,21.81
2018-05-03T05:37:47.486Z,21.82
2018-05-03T05:38:19.267Z,21.82
2018-05-03T05:38:50.957Z,21.81
2018-05-03T05:39:22.596Z,21.79
2018-05-03T05:39:54.480Z,21.81
2018-05-03T05:40:26.155Z,21.80
2018-05-03T05:40:57.878Z,21.80
2018-05-03T05:41:30.303Z,21.62
2018-05-03T05:42:02.038Z,21.78
2018-05-03T05:42:33.682Z,21.78
2018-05-03T05:43:05.386Z,21.77
2018-05-03T05:43:37.031Z,21.77
2018-05-03T05:44:08.731Z,21.77
2018-05-03T05:44:40.450Z,21.77
2018-05-03T05:45:12.174Z,21.78
2018-05-03T05:45:43.898Z,21.80
2018-05-03T05:46:15.623Z,21.80
2018-05-03T05:46:47.267Z,21.83
2018-05-03T05:47:18.970Z,21.84
2018-05-03T05:47:50.693Z,21.83
2018-05-03T05:48:22.415Z,21.82
2018-05-03T05:48:54.052Z,21.81
2018-05-03T05:49:25.745Z,21.83
2018-05-03T05:49:57.372Z,21.87
2018-05-03T05:50:28.996Z,21.89
2018-05-03T05:51:00.647Z,21.90
2018-05-03T05:51:32.289Z,21.90
2018-05-03T05:52:03.916Z,21.91
2018-05-03T05:52:35.544Z,21.94
2018-05-03T05:53:07.172Z,21.91
2018-05-03T05:53:38.796Z,21.92
2018-05-03T05:54:10.420Z,21.94
2018-05-03T05:54:42.092Z,21.94
2018-05-03T05:55:13.721Z,21.94
2018-05-03T05:55:45.353Z,21.93
2018-05-03T05:56:16.979Z,21.93
2018-05-03T05:56:48.657Z,21.93
2018-05-03T05:57:20.225Z,21.93
2018-05-03T05:57:51.824Z,21.92
2018-05-03T05:58:23.430Z,21.92
2018-05-03T05:58:55.029Z,21.93
2018-05-03T05:59:26.689Z,21.92
2018-05-03T05:59:58.286Z,21.89
2018-05-03T06:00:29.893Z,21.91
2018-05-03T06:01:01.546Z,21.92
2018-05-03T06:01:34.186Z,21.92
2018-05-03T06:02:05.794Z,21.90
2018-05-03T06:02:37.394Z,21.90
2018-05-03T06:03:09.001Z,21.90
2018-05-03T06:03:40.614Z,21.88
2018-05-03T06:04:12.264Z,21.89
2018-05-03T06:04:44.466Z,21.89
2018-05-03T06:05:16.074Z,21.85
2018-05-03T06:05:47.687Z,21.87
2018-05-03T06:06:19.296Z,21.89
2018-05-03T06:06:50.892Z,21.88
2018-05-03T06:07:22.491Z,21.87
2018-05-03T06:07:54.088Z,21.85
2018-05-03T06:08:25.699Z,21.85
2018-05-03T06:08:57.325Z,21.84
2018-05-03T06:09:28.931Z,21.87
2018-05-03T06:10:00.590Z,21.86
2018-05-03T06:10:32.202Z,21.85
2018-05-03T06:11:03.812Z,21.85
2018-05-03T06:11:35.422Z,21.84
2018-05-03T06:12:07.030Z,21.84
2018-05-03T06:12:38.624Z,21.82
2018-05-03T06:13:10.214Z,21.82
2018-05-03T06:13:41.784Z,21.84
2018-05-03T06:14:13.393Z,21.83
2018-05-03T06:14:45.021Z,21.83
2018-05-03T06:15:16.602Z,21.82
2018-05-03T06:15:48.227Z,21.82
2018-05-03T06:16:19.830Z,21.81
2018-05-03T06:16:51.473Z,21.81
2018-05-03T06:17:23.073Z,21.81
2018-05-03T06:17:54.652Z,21.81
2018-05-03T06:18:26.253Z,21.80
2018-05-03T06:18:57.825Z,21.80
2018-05-03T06:19:29.430Z,21.81
2018-05-03T06:20:01.018Z,21.80
2018-05-03T06:20:32.646Z,21.81
2018-05-03T06:21:04.220Z,21.80
2018-05-03T06:21:35.811Z,21.79
2018-05-03T06:22:07.423Z,21.78
2018-05-03T06:22:39.010Z,21.76
2018-05-03T06:23:10.580Z,21.77
2018-05-03T06:23:42.202Z,21.79
2018-05-03T06:24:13.798Z,21.78
2018-05-03T06:24:45.442Z,21.77
2018-05-03T06:25:17.041Z,21.78
2018-05-03T06:25:48.668Z,21.79
2018-05-03T06:26:20.255Z,21.81
2018-05-03T06:26:51.864Z,21.80
2018-05-03T06:27:23.469Z,21.82
2018-05-03T06:27:55.049Z,21.80
2018-05-03T06:28:26.618Z,21.78
2018-05-03T06:28:58.249Z,21.78
2018-05-03T06:29:29.833Z,21.78
2018-05-03T06:30:01.412Z,21.80
2018-05-03T06:30:32.998Z,21.81
2018-05-03T06:31:04.572Z,21.83
2018-05-03T06:31:36.158Z,21.82
2018-05-03T06:32:07.769Z,21.83
2018-05-03T06:32:39.372Z,21.80
2018-05-03T06:33:10.978Z,21.80
2018-05-03T06:33:42.589Z,21.80
2018-05-03T06:34:14.237Z,21.78
2018-05-03T06:34:45.818Z,21.78
2018-05-03T06:35:17.402Z,21.76
2018-05-03T06:35:49.010Z,21.77
2018-05-03T06:36:20.607Z,21.77
2018-05-03T06:36:52.218Z,21.76
2018-05-03T06:37:23.826Z,21.75
2018-05-03T06:37:55.424Z,21.75
2018-05-03T06:38:27.023Z,21.75
2018-05-03T06:38:58.661Z,21.76
2018-05-03T06:39:30.236Z,21.77
2018-05-03T06:40:01.851Z,21.75
2018-05-03T06:40:33.501Z,21.73
2018-05-03T06:41:05.090Z,21.74
2018-05-03T06:41:36.657Z,21.72
2018-05-03T06:42:08.302Z,21.70
2018-05-03T06:42:39.936Z,21.67
2018-05-03T06:43:11.513Z,21.66
2018-05-03T06:43:43.122Z,21.61
2018-05-03T06:44:14.727Z,21.65
2018-05-03T06:44:46.307Z,21.64
2018-05-03T06:45:17.927Z,21.66
2018-05-03T06:45:49.528Z,21.66
2018-05-03T06:46:21.107Z,21.66
2018-05-03T06:46:52.690Z,21.66
2018-05-03T06:47:24.273Z,21.66
2018-05-03T06:47:55.844Z,21.67
2018-05-03T06:48:27.422Z,21.67
2018-05-03T06:48:59.470Z,21.67
2018-05-03T06:49:31.097Z,21.68
2018-05-03T06:50:02.688Z,21.69
2018-05-03T06:50:34.284Z,21.68
2018-05-03T06:51:05.876Z,21.70
2018-05-03T06:51:37.506Z,21.72
2018-05-03T06:52:09.061Z,21.71
2018-05-03T06:52:40.652Z,21.70
2018-05-03T06:53:12.262Z,21.72
2018-05-03T06:53:43.840Z,21.72
2018-05-03T06:54:15.440Z,21.72